X  CloseMetar Aviation Weather Data     EBBR Brussels

Temperatura

17°C Temperatura

6°C Punto di rugiada

49% Umidità



Vento

10 KM/H

 6 MPH

 3 M/S

 5 KTS



80°
Est
Condizioni attuali

Chiaro Chiaro
Pressione atmosferica 1026.92 (hPa) - 30.32 (in)
Visibilità 6.2 (mi) - 10 (km)
Aeroporto
Airport-code EBBR

Posizione Brussels 20 (km)

Metar:
EBBR 291520Z 08005KT 040V130 CAVOK 17/06 Q1027 NOSIG

Ore: 29-03-2019 16:20